createdAt,value
2018-12-16T00:01:35.937Z,28.17
2018-12-16T00:04:04.870Z,27.93
2018-12-16T00:06:33.736Z,28.07
2018-12-16T00:09:03.112Z,26.33
2018-12-16T00:11:31.893Z,28.73
2018-12-16T00:14:00.679Z,31.53
2018-12-16T00:16:30.083Z,28.50
2018-12-16T00:23:58.820Z,28.40
2018-12-16T00:27:35.130Z,26.33
2018-12-16T00:30:04.556Z,27.67
2018-12-16T00:32:33.330Z,27.97
2018-12-16T00:35:02.088Z,28.83
2018-12-16T00:37:31.055Z,25.83
2018-12-16T00:40:01.147Z,28.02
2018-12-16T00:42:30.232Z,28.57
2018-12-16T00:45:01.240Z,26.58
2018-12-16T00:47:30.717Z,28.57
2018-12-16T00:49:59.925Z,28.17
2018-12-16T00:52:28.760Z,28.37
2018-12-16T00:54:57.711Z,28.73
2018-12-16T00:57:26.439Z,27.73
2018-12-16T00:59:55.304Z,32.40
2018-12-16T01:02:29.291Z,25.47
2018-12-16T01:04:58.207Z,32.20
2018-12-16T01:07:27.205Z,31.17
2018-12-16T01:09:55.965Z,29.30
2018-12-16T01:12:25.011Z,29.03
2018-12-16T01:14:53.821Z,29.17
2018-12-16T01:17:22.650Z,29.10
2018-12-16T01:19:51.531Z,29.50
2018-12-16T01:22:20.279Z,32.50
2018-12-16T01:24:49.096Z,33.33
2018-12-16T01:27:18.055Z,33.17
2018-12-16T01:29:46.755Z,32.53
2018-12-16T01:32:15.516Z,32.17
2018-12-16T01:34:44.341Z,33.37
2018-12-16T01:37:13.076Z,34.60
2018-12-16T01:39:41.791Z,32.50
2018-12-16T01:42:10.760Z,34.33
2018-12-16T01:44:39.597Z,35.07
2018-12-16T01:47:08.396Z,35.27
2018-12-16T01:49:37.347Z,34.55
2018-12-16T01:52:06.258Z,34.50
2018-12-16T01:54:35.133Z,37.70
2018-12-16T01:57:04.078Z,33.00
2018-12-16T01:59:33.495Z,36.57
2018-12-16T02:02:02.192Z,35.40
2018-12-16T02:04:31.126Z,35.03
2018-12-16T02:07:00.242Z,36.03
2018-12-16T02:09:28.986Z,35.85
2018-12-16T02:11:57.799Z,36.13
2018-12-16T02:14:26.585Z,38.67
2018-12-16T02:16:55.628Z,38.10
2018-12-16T02:19:24.524Z,35.77
2018-12-16T02:21:53.272Z,37.70
2018-12-16T02:24:22.537Z,39.70
2018-12-16T02:26:51.380Z,36.13
2018-12-16T02:29:20.237Z,35.80
2018-12-16T02:31:49.108Z,36.75
2018-12-16T02:34:17.968Z,36.77
2018-12-16T02:36:46.715Z,37.00
2018-12-16T02:39:15.394Z,34.53
2018-12-16T02:41:44.281Z,40.17
2018-12-16T02:44:13.079Z,37.83
2018-12-16T02:46:41.848Z,39.07
2018-12-16T02:49:11.009Z,36.13
2018-12-16T02:51:39.701Z,39.07
2018-12-16T02:54:10.095Z,37.83
2018-12-16T02:56:38.952Z,38.00
2018-12-16T02:59:07.707Z,40.27
2018-12-16T03:01:36.464Z,39.40
2018-12-16T03:04:05.365Z,39.38
2018-12-16T03:06:34.209Z,40.00
2018-12-16T03:09:02.944Z,40.47
2018-12-16T03:11:31.782Z,40.60
2018-12-16T03:14:00.433Z,39.23
2018-12-16T03:16:29.088Z,44.88
2018-12-16T03:18:57.976Z,41.60
2018-12-16T03:21:26.764Z,40.20
2018-12-16T03:23:55.520Z,40.87
2018-12-16T03:26:26.071Z,42.37
2018-12-16T03:28:54.957Z,40.43
2018-12-16T03:31:23.730Z,42.73
2018-12-16T03:33:52.655Z,43.70
2018-12-16T03:36:21.480Z,41.57
2018-12-16T03:38:50.207Z,42.78
2018-12-16T03:41:19.168Z,43.00
2018-12-16T03:43:47.885Z,40.25
2018-12-16T03:46:16.638Z,41.83
2018-12-16T03:48:45.803Z,42.70
2018-12-16T03:51:14.457Z,42.97
2018-12-16T03:53:43.271Z,45.45
2018-12-16T03:56:12.139Z,42.10
2018-12-16T03:58:50.777Z,49.30
2018-12-16T04:01:19.612Z,46.67
2018-12-16T04:03:48.342Z,43.07
2018-12-16T04:06:17.152Z,43.97
2018-12-16T04:08:46.077Z,44.57
2018-12-16T04:11:14.837Z,44.13
2018-12-16T04:13:43.728Z,45.00
2018-12-16T04:16:12.470Z,43.92
2018-12-16T04:18:41.149Z,45.15
2018-12-16T04:21:09.809Z,43.95
2018-12-16T04:23:38.692Z,45.23
2018-12-16T04:26:07.492Z,42.23
2018-12-16T04:28:36.309Z,42.78
2018-12-16T04:31:05.280Z,41.60
2018-12-16T04:33:34.087Z,42.70
2018-12-16T04:36:02.723Z,45.97
2018-12-16T04:38:31.489Z,42.60
2018-12-16T04:41:00.300Z,45.35
2018-12-16T04:43:28.987Z,43.20
2018-12-16T04:45:58.079Z,42.73
2018-12-16T04:48:26.816Z,42.67
2018-12-16T04:50:56.324Z,42.97
2018-12-16T04:53:25.184Z,42.37
2018-12-16T04:55:55.470Z,44.77
2018-12-16T04:58:25.406Z,45.97
2018-12-16T05:00:54.316Z,42.43
2018-12-16T05:03:23.071Z,43.67
2018-12-16T05:05:51.891Z,46.87
2018-12-16T05:08:20.674Z,46.20
2018-12-16T05:10:49.433Z,47.23
2018-12-16T05:13:18.141Z,43.67
2018-12-16T05:15:47.000Z,48.60
2018-12-16T05:18:15.742Z,49.13
2018-12-16T05:20:44.448Z,46.90
2018-12-16T05:23:13.198Z,44.63
2018-12-16T05:25:41.905Z,47.30
2018-12-16T05:28:10.681Z,52.00
2018-12-16T05:30:39.602Z,47.00
2018-12-16T05:33:08.352Z,46.13
2018-12-16T05:35:37.051Z,45.08
2018-12-16T05:38:05.749Z,43.05
2018-12-16T05:40:34.465Z,46.53
2018-12-16T05:43:03.210Z,45.50
2018-12-16T05:45:32.064Z,45.73
2018-12-16T05:48:00.789Z,48.40
2018-12-16T05:50:30.565Z,44.74
2018-12-16T05:52:59.455Z,43.20
2018-12-16T05:55:28.116Z,45.93
2018-12-16T05:57:56.831Z,44.97
2018-12-16T06:00:25.789Z,44.90
2018-12-16T06:02:54.495Z,44.53
2018-12-16T06:05:23.365Z,47.03
2018-12-16T06:07:52.261Z,44.50
2018-12-16T06:10:21.055Z,46.77
2018-12-16T06:12:49.807Z,45.00
2018-12-16T06:15:20.188Z,47.87
2018-12-16T06:17:48.957Z,46.73
2018-12-16T06:20:17.810Z,46.77
2018-12-16T06:22:46.599Z,46.83
2018-12-16T06:25:15.285Z,48.10
2018-12-16T06:27:43.927Z,47.93
2018-12-16T06:30:13.375Z,47.55
2018-12-16T06:32:42.165Z,46.43
2018-12-16T06:35:10.955Z,46.10
2018-12-16T06:37:39.844Z,46.00
2018-12-16T06:40:08.786Z,47.45
2018-12-16T06:42:37.524Z,49.37
2018-12-16T06:45:07.056Z,51.20
2018-12-16T06:47:35.837Z,49.53
2018-12-16T06:50:05.219Z,49.13
2018-12-16T06:52:34.448Z,47.10
2018-12-16T06:55:03.316Z,48.77
2018-12-16T06:57:32.098Z,47.60
2018-12-16T07:00:00.812Z,49.07
2018-12-16T07:02:29.593Z,47.88
2018-12-16T07:04:58.391Z,47.73
2018-12-16T07:07:27.316Z,49.83
2018-12-16T07:09:56.161Z,49.57
2018-12-16T07:12:24.957Z,49.43
2018-12-16T07:14:53.971Z,48.90
2018-12-16T07:17:22.866Z,52.70
2018-12-16T07:19:51.629Z,48.00
2018-12-16T07:22:20.501Z,48.10
2018-12-16T07:24:49.180Z,49.93
2018-12-16T07:27:17.976Z,47.77
2018-12-16T07:29:47.306Z,52.05
2018-12-16T07:32:16.084Z,51.50
2018-12-16T07:34:44.815Z,49.70
2018-12-16T07:37:19.014Z,50.92
2018-12-16T07:39:44.487Z,53.08
2018-12-16T07:42:13.221Z,52.30
2018-12-16T07:44:42.175Z,50.87
2018-12-16T07:47:10.943Z,49.93
2018-12-16T07:49:39.718Z,52.63
2018-12-16T07:52:08.447Z,52.33
2018-12-16T07:54:37.222Z,50.88
2018-12-16T07:57:06.132Z,51.53
2018-12-16T07:59:35.107Z,48.13
2018-12-16T08:02:03.822Z,48.23
2018-12-16T08:04:32.612Z,52.48
2018-12-16T08:07:01.449Z,54.17
2018-12-16T08:09:30.629Z,50.38
2018-12-16T08:11:59.513Z,54.33
2018-12-16T08:14:28.252Z,50.93
2018-12-16T08:16:57.057Z,50.90
2018-12-16T08:19:25.699Z,51.57
2018-12-16T08:21:54.554Z,48.93
2018-12-16T08:24:23.551Z,53.63
2018-12-16T08:26:52.357Z,52.20
2018-12-16T08:29:21.248Z,50.00
2018-12-16T08:31:50.036Z,48.13
2018-12-16T08:34:18.867Z,53.17
2018-12-16T08:36:47.763Z,47.00
2018-12-16T08:39:16.479Z,47.97
2018-12-16T08:41:45.173Z,47.23
2018-12-16T08:44:13.987Z,48.97
2018-12-16T08:46:42.708Z,45.52
2018-12-16T08:49:11.376Z,47.03
2018-12-16T08:51:40.496Z,45.88
2018-12-16T08:54:09.260Z,46.47
2018-12-16T08:56:37.980Z,45.67
2018-12-16T08:59:07.280Z,47.58
2018-12-16T09:01:36.100Z,44.73
2018-12-16T09:04:04.802Z,46.60
2018-12-16T09:06:33.602Z,44.80
2018-12-16T09:09:02.452Z,45.87
2018-12-16T09:11:31.166Z,44.67
2018-12-16T09:14:00.867Z,45.52
2018-12-16T09:16:29.538Z,42.23
2018-12-16T09:18:58.306Z,41.47
2018-12-16T09:21:27.228Z,42.03
2018-12-16T09:23:55.997Z,43.20
2018-12-16T09:26:24.716Z,42.03
2018-12-16T09:28:53.564Z,39.10
2018-12-16T09:31:22.295Z,37.00
2018-12-16T09:33:51.038Z,37.67
2018-12-16T09:36:19.712Z,38.85
2018-12-16T09:38:48.530Z,39.65
2018-12-16T09:41:17.288Z,36.80
2018-12-16T09:43:46.175Z,36.90
2018-12-16T09:46:14.915Z,36.90
2018-12-16T09:48:43.753Z,38.23
2018-12-16T09:51:12.854Z,36.67
2018-12-16T09:53:41.678Z,34.65
2018-12-16T09:56:10.405Z,37.55
2018-12-16T09:58:39.347Z,34.20
2018-12-16T10:01:08.342Z,34.97
2018-12-16T10:03:37.242Z,34.10
2018-12-16T10:06:06.098Z,34.27
2018-12-16T10:08:34.882Z,35.60
2018-12-16T10:11:03.675Z,35.43
2018-12-16T10:13:34.846Z,33.08
2018-12-16T10:16:03.609Z,33.17
2018-12-16T10:18:32.343Z,35.27
2018-12-16T10:21:01.215Z,34.27
2018-12-16T10:23:30.789Z,32.20
2018-12-16T10:25:59.528Z,32.30
2018-12-16T10:28:28.677Z,34.07
2018-12-16T10:30:57.337Z,35.60
2018-12-16T10:33:26.090Z,32.57
2018-12-16T10:35:55.159Z,35.07
2018-12-16T10:38:23.969Z,32.77
2018-12-16T10:40:52.715Z,33.55
2018-12-16T10:43:21.721Z,32.33
2018-12-16T10:45:50.519Z,32.37
2018-12-16T10:48:19.184Z,31.93
2018-12-16T10:50:48.117Z,34.65
2018-12-16T10:53:16.835Z,35.08
2018-12-16T10:55:45.523Z,30.80
2018-12-16T10:58:14.404Z,31.53
2018-12-16T11:00:48.260Z,31.65
2018-12-16T11:03:17.452Z,33.67
2018-12-16T11:05:46.103Z,30.25
2018-12-16T11:08:14.819Z,32.63
2018-12-16T11:10:43.749Z,31.37
2018-12-16T11:13:12.543Z,29.93
2018-12-16T11:15:41.434Z,30.83
2018-12-16T11:18:10.421Z,35.48
2018-12-16T11:20:39.228Z,31.03
2018-12-16T11:23:08.000Z,32.45
2018-12-16T11:25:40.135Z,32.45
2018-12-16T11:28:08.917Z,30.97
2018-12-16T11:30:37.610Z,32.30
2018-12-16T11:33:06.335Z,30.00
2018-12-16T11:35:35.109Z,31.67
2018-12-16T11:38:03.841Z,29.47
2018-12-16T11:40:33.019Z,30.93
2018-12-16T11:43:01.710Z,29.43
2018-12-16T11:45:31.879Z,31.93
2018-12-16T11:48:01.279Z,32.90
2018-12-16T11:50:30.958Z,31.17
2018-12-16T11:52:59.708Z,29.00
2018-12-16T11:55:28.713Z,31.30
2018-12-16T11:58:00.505Z,32.87
2018-12-16T12:00:29.271Z,30.07
2018-12-16T12:02:58.001Z,32.97
2018-12-16T12:05:26.948Z,31.43
2018-12-16T12:07:55.882Z,31.23
2018-12-16T12:10:24.598Z,34.00
2018-12-16T12:12:53.393Z,31.80
2018-12-16T12:15:22.267Z,34.77
2018-12-16T12:17:50.940Z,33.17
2018-12-16T12:20:19.745Z,33.13
2018-12-16T12:22:49.231Z,31.93
2018-12-16T12:25:20.056Z,33.08
2018-12-16T12:27:48.826Z,34.07
2018-12-16T12:30:17.884Z,33.42
2018-12-16T12:32:49.156Z,33.27
2018-12-16T12:35:17.494Z,32.97
2018-12-16T12:37:46.493Z,33.33
2018-12-16T12:40:15.525Z,35.08
2018-12-16T12:42:44.273Z,32.30
2018-12-16T12:45:13.008Z,34.80
2018-12-16T12:47:41.724Z,34.03
2018-12-16T12:50:10.683Z,35.83
2018-12-16T12:52:39.583Z,42.23
2018-12-16T12:55:08.641Z,36.03
2018-12-16T12:57:37.417Z,33.28
2018-12-16T13:00:10.173Z,32.97
2018-12-16T13:02:39.001Z,33.50
2018-12-16T13:05:07.875Z,34.58
2018-12-16T13:07:36.864Z,33.55
2018-12-16T13:10:07.297Z,37.55
2018-12-16T13:12:36.036Z,32.95
2018-12-16T13:15:05.232Z,33.07
2018-12-16T13:17:34.063Z,35.92
2018-12-16T13:20:04.102Z,35.60
2018-12-16T13:22:32.970Z,32.97
2018-12-16T13:25:12.687Z,35.63
2018-12-16T13:27:42.031Z,37.98
2018-12-16T13:30:11.413Z,37.08
2018-12-16T13:32:40.180Z,41.53
2018-12-16T13:35:09.070Z,35.45
2018-12-16T13:37:37.848Z,42.87
2018-12-16T13:40:07.909Z,35.73
2018-12-16T13:42:36.840Z,37.80
2018-12-16T13:45:06.611Z,37.00
2018-12-16T13:47:35.590Z,37.73
2018-12-16T13:50:05.505Z,37.83
2018-12-16T13:52:34.287Z,36.73
2018-12-16T13:55:03.165Z,37.53
2018-12-16T13:57:33.138Z,37.60
2018-12-16T14:00:01.925Z,35.47
2018-12-16T14:02:31.085Z,40.75
2018-12-16T14:04:59.904Z,40.17
2018-12-16T14:07:28.680Z,37.60
2018-12-16T14:09:57.700Z,37.33
2018-12-16T14:12:26.549Z,36.67
2018-12-16T14:14:55.317Z,37.97
2018-12-16T14:17:24.126Z,40.63
2018-12-16T14:19:53.011Z,35.77
2018-12-16T14:22:21.807Z,39.23
2018-12-16T14:24:50.579Z,36.17
2018-12-16T14:27:19.398Z,36.57
2018-12-16T14:29:48.169Z,38.27
2018-12-16T14:32:16.823Z,39.17
2018-12-16T14:34:45.806Z,40.73
2018-12-16T14:37:14.561Z,38.77
2018-12-16T14:39:43.396Z,40.20
2018-12-16T14:42:12.211Z,41.33
2018-12-16T14:44:40.918Z,40.67
2018-12-16T14:47:09.708Z,42.78
2018-12-16T14:49:38.553Z,41.57
2018-12-16T14:52:07.270Z,41.20
2018-12-16T14:54:38.105Z,41.60
2018-12-16T14:57:07.665Z,46.73
2018-12-16T14:59:36.513Z,42.87
2018-12-16T15:02:05.291Z,39.30
2018-12-16T15:04:34.520Z,41.33
2018-12-16T15:07:03.314Z,38.87
2018-12-16T15:09:32.062Z,41.23
2018-12-16T15:12:01.403Z,44.42
2018-12-16T15:14:30.271Z,38.23
2018-12-16T15:16:58.969Z,43.63
2018-12-16T15:19:27.765Z,44.17
2018-12-16T15:21:56.647Z,43.07
2018-12-16T15:24:25.426Z,41.00
2018-12-16T15:26:54.460Z,39.40
2018-12-16T15:29:23.498Z,41.48
2018-12-16T15:31:52.234Z,43.50
2018-12-16T15:34:20.971Z,40.70
2018-12-16T15:36:49.644Z,42.93
2018-12-16T15:39:18.635Z,39.38
2018-12-16T15:41:47.489Z,43.55
2018-12-16T15:44:16.232Z,40.45
2018-12-16T15:46:45.022Z,48.73
2018-12-16T15:49:14.059Z,42.07
2018-12-16T15:51:42.978Z,44.03
2018-12-16T15:54:11.802Z,40.00
2018-12-16T15:56:40.684Z,40.30
2018-12-16T15:59:09.381Z,45.12
2018-12-16T16:01:38.164Z,41.20
2018-12-16T16:04:07.160Z,41.93
2018-12-16T16:06:38.004Z,41.00
2018-12-16T16:09:08.670Z,37.75
2018-12-16T16:11:37.419Z,39.83
2018-12-16T16:14:06.591Z,45.60
2018-12-16T16:16:35.515Z,39.50
2018-12-16T16:19:04.476Z,38.53
2018-12-16T16:21:33.297Z,41.60
2018-12-16T16:24:03.130Z,40.50
2018-12-16T16:26:31.891Z,41.43
2018-12-16T16:29:01.367Z,43.65
2018-12-16T16:31:30.564Z,41.97
2018-12-16T16:33:59.349Z,38.17
2018-12-16T16:36:28.122Z,39.17
2018-12-16T16:38:56.894Z,42.10
2018-12-16T16:41:25.639Z,44.10
2018-12-16T16:43:54.361Z,38.73
2018-12-16T16:46:23.613Z,35.77
2018-12-16T16:48:52.408Z,42.58
2018-12-16T16:51:21.172Z,39.20
2018-12-16T16:53:50.233Z,38.77
2018-12-16T16:56:23.024Z,44.35
2018-12-16T16:58:49.696Z,45.17
2018-12-16T17:01:18.571Z,40.58
2018-12-16T17:03:47.284Z,39.80
2018-12-16T17:06:16.140Z,44.57
2018-12-16T17:08:44.872Z,43.00
2018-12-16T17:11:13.642Z,46.57
2018-12-16T17:13:42.406Z,42.65
2018-12-16T17:16:11.959Z,40.00
2018-12-16T17:18:41.187Z,41.20
2018-12-16T17:21:09.872Z,42.17
2018-12-16T17:23:38.657Z,38.97
2018-12-16T17:26:07.466Z,40.35
2018-12-16T17:28:36.205Z,40.53
2018-12-16T17:31:05.888Z,36.17
2018-12-16T17:33:35.018Z,37.67
2018-12-16T17:36:03.800Z,38.17
2018-12-16T17:38:33.008Z,38.33
2018-12-16T17:41:01.737Z,36.43
2018-12-16T17:43:31.632Z,39.63
2018-12-16T17:46:00.768Z,41.90
2018-12-16T17:48:29.431Z,42.15
2018-12-16T17:50:58.158Z,39.23
2018-12-16T17:53:26.921Z,40.73
2018-12-16T17:55:55.721Z,39.03
2018-12-16T17:58:25.172Z,38.13
2018-12-16T18:00:54.247Z,39.13
2018-12-16T18:03:23.079Z,41.50
2018-12-16T18:05:51.850Z,39.13
2018-12-16T18:08:20.760Z,40.23
2018-12-16T18:10:49.795Z,39.40
2018-12-16T18:13:18.544Z,62.73
2018-12-16T18:15:47.360Z,43.10
2018-12-16T18:18:16.500Z,41.55
2018-12-16T18:20:45.357Z,39.95
2018-12-16T18:23:14.369Z,41.23
2018-12-16T18:25:43.120Z,41.53
2018-12-16T18:28:12.046Z,40.23
2018-12-16T18:30:41.146Z,39.77
2018-12-16T18:33:10.615Z,45.70
2018-12-16T18:35:39.475Z,40.33
2018-12-16T18:38:08.404Z,41.23
2018-12-16T18:40:37.360Z,42.90
2018-12-16T18:43:06.276Z,40.20
2018-12-16T18:45:35.553Z,42.83
2018-12-16T18:48:05.120Z,41.57
2018-12-16T18:50:34.215Z,40.27
2018-12-16T18:53:03.150Z,40.77
2018-12-16T18:55:32.060Z,39.50
2018-12-16T18:58:01.821Z,42.30
2018-12-16T19:00:30.715Z,40.83
2018-12-16T19:02:59.556Z,39.00
2018-12-16T19:05:28.433Z,44.23
2018-12-16T19:07:57.440Z,40.80
2018-12-16T19:10:26.187Z,41.10
2018-12-16T19:12:54.983Z,40.63
2018-12-16T19:15:24.134Z,41.63
2018-12-16T19:17:53.041Z,39.90
2018-12-16T19:20:22.147Z,40.40
2018-12-16T19:22:51.078Z,42.97
2018-12-16T19:25:19.823Z,41.00
2018-12-16T19:27:49.095Z,43.47
2018-12-16T19:30:18.373Z,40.28
2018-12-16T19:32:47.226Z,45.90
2018-12-16T19:35:18.098Z,44.13
2018-12-16T19:37:47.006Z,40.80
2018-12-16T19:40:16.197Z,38.83
2018-12-16T19:42:45.497Z,43.50
2018-12-16T19:45:14.615Z,42.53
2018-12-16T19:47:49.408Z,42.80
2018-12-16T19:50:14.433Z,45.75
2018-12-16T19:52:43.426Z,45.80
2018-12-16T19:55:12.287Z,40.50
2018-12-16T19:57:41.466Z,44.00
2018-12-16T20:00:10.903Z,45.80
2018-12-16T20:02:40.416Z,41.00
2018-12-16T20:05:13.747Z,43.23
2018-12-16T20:07:42.757Z,43.87
2018-12-16T20:10:11.733Z,41.50
2018-12-16T20:12:40.644Z,49.20
2018-12-16T20:15:09.661Z,44.93
2018-12-16T20:17:38.582Z,44.60
2018-12-16T20:20:08.906Z,43.47
2018-12-16T20:22:37.894Z,41.58
2018-12-16T20:25:08.126Z,46.02
2018-12-16T20:27:37.313Z,43.80
2018-12-16T20:30:07.864Z,46.05
2018-12-16T20:32:36.877Z,44.27
2018-12-16T20:35:06.204Z,45.40
2018-12-16T20:37:35.799Z,43.70
2018-12-16T20:40:05.091Z,45.73
2018-12-16T20:42:35.109Z,43.20
2018-12-16T20:45:04.348Z,45.15
2018-12-16T20:47:33.542Z,45.97
2018-12-16T20:50:02.917Z,46.00
2018-12-16T20:52:32.177Z,44.13
2018-12-16T20:55:02.129Z,45.48
2018-12-16T20:57:33.476Z,44.18
2018-12-16T21:00:02.786Z,48.10
2018-12-16T21:02:32.923Z,44.55
2018-12-16T21:05:02.267Z,47.35
2018-12-16T21:07:33.313Z,43.17
2018-12-16T21:10:02.430Z,44.73
2018-12-16T21:12:37.393Z,46.27
2018-12-16T21:15:11.717Z,48.23
2018-12-16T21:17:46.254Z,43.93
2018-12-16T21:20:15.213Z,44.85
2018-12-16T21:22:44.289Z,44.35
2018-12-16T21:25:13.361Z,45.45
2018-12-16T21:27:43.206Z,46.30
2018-12-16T21:30:12.233Z,46.65
2018-12-16T21:32:41.406Z,44.20
2018-12-16T21:35:10.315Z,45.93
2018-12-16T21:37:41.284Z,43.50
2018-12-16T21:40:10.455Z,44.10
2018-12-16T21:42:40.000Z,44.83
2018-12-16T21:45:09.073Z,43.53
2018-12-16T21:47:38.011Z,44.77
2018-12-16T21:50:07.757Z,44.80
2018-12-16T21:52:36.932Z,46.43
2018-12-16T21:55:07.394Z,45.93
2018-12-16T21:57:36.359Z,45.87
2018-12-16T22:00:07.685Z,48.85
2018-12-16T22:02:37.356Z,48.50
2018-12-16T22:05:08.130Z,45.98
2018-12-16T22:07:36.980Z,44.07
2018-12-16T22:10:06.597Z,44.30
2018-12-16T22:12:35.424Z,45.17
2018-12-16T22:15:05.124Z,47.50
2018-12-16T22:17:34.019Z,44.80
2018-12-16T22:20:02.904Z,44.50
2018-12-16T22:22:32.032Z,44.00
2018-12-16T22:25:01.105Z,43.27
2018-12-16T22:27:29.912Z,43.67
2018-12-16T22:29:58.682Z,42.67
2018-12-16T22:32:27.658Z,49.17
2018-12-16T22:34:56.416Z,45.80
2018-12-16T22:37:25.347Z,42.27
2018-12-16T22:39:54.879Z,43.73
2018-12-16T22:42:23.878Z,44.03
2018-12-16T22:44:52.715Z,43.40
2018-12-16T22:47:21.653Z,45.30
2018-12-16T22:49:50.472Z,44.67
2018-12-16T22:52:19.939Z,45.07
2018-12-16T22:54:48.935Z,44.38
2018-12-16T22:57:17.897Z,47.17
2018-12-16T22:59:46.764Z,48.17
2018-12-16T23:02:15.696Z,43.95
2018-12-16T23:04:44.459Z,42.70
2018-12-16T23:07:13.188Z,43.37
2018-12-16T23:09:42.147Z,45.00
2018-12-16T23:12:11.173Z,46.17
2018-12-16T23:14:40.124Z,45.90
2018-12-16T23:17:09.055Z,45.80
2018-12-16T23:19:37.984Z,46.87
2018-12-16T23:22:06.835Z,48.45
2018-12-16T23:24:38.297Z,45.43
2018-12-16T23:27:07.590Z,47.58
2018-12-16T23:29:36.680Z,44.33
2018-12-16T23:32:05.692Z,43.63
2018-12-16T23:34:35.112Z,44.37
2018-12-16T23:37:04.230Z,44.20
2018-12-16T23:39:33.080Z,45.50
2018-12-16T23:42:02.164Z,46.35
2018-12-16T23:44:31.106Z,44.70
2018-12-16T23:47:00.001Z,42.37
2018-12-16T23:49:28.756Z,44.83
2018-12-16T23:51:57.650Z,43.40
2018-12-16T23:54:26.729Z,45.40
2018-12-16T23:56:55.814Z,47.27
2018-12-16T23:59:24.672Z,46.77
